Latest Weather Observations for Spitfire Channel

IDQ60901

Issued at 10:31 am EST Friday 15 November 2019 (issued every 10 minutes, with the page automatically refreshed every 10 minutes)

About weather observations | Map of Brisbane area stations | Latest observations for Brisbane area | Other Formats
Station Details ID: 040927 Name: SPITFIRE CHANNEL BEACON Lat: -27.05 Lon: 153.27 Height: 7.0 m
Data from the previous 72 hours. | See also: Recent months at Spitfire Channel
Date/Time
EST
Temp
°C
App
Temp
°C
Dew
Point
°C
Rel
Hum
%
Delta-T
°C
Wind Press
QNH
hPa
Press
MSL
hPa
Rain since
9am
mm
Dir  Spd
km/h
Gust
km/h
Spd
kts
Gust
kts
15/10:30am - - - - - NNE 15 17 8 9 - - -
15/10:00am - - - - - N 11 13 6 7 - - -
15/09:30am - - - - - N 9 11 5 6 - - -
15/09:00am - - - - - NNW 7 11 4 6 - - -
15/08:30am - - - - - NNW 9 11 5 6 - - -
15/08:00am - - - - - CALM 0 0 0 0 - - -
15/07:30am - - - - - NW 7 9 4 5 - - -
15/07:00am - - - - - W 6 7 3 4 - - -
15/06:30am - - - - - WSW 7 9 4 5 - - -
15/06:00am - - - - - W 9 13 5 7 - - -
15/05:30am - - - - - N 6 7 3 4 - - -
15/05:00am - - - - - N 2 4 1 2 - - -
15/04:30am - - - - - N 6 6 3 3 - - -
15/04:00am - - - - - NNE 7 9 4 5 - - -
15/03:30am - - - - - NE 4 6 2 3 - - -
15/03:00am - - - - - CALM 0 4 0 2 - - -
15/02:30am - - - - - NE 6 7 3 4 - - -
15/02:00am - - - - - NNE 9 13 5 7 - - -
15/01:30am - - - - - ENE 11 15 6 8 - - -
15/01:00am - - - - - ENE 11 13 6 7 - - -
15/12:30am - - - - - NE 13 15 7 8 - - -
15/12:00am - - - - - ENE 13 15 7 8 - - -
 
Date/Time
EST
Temp
°C
App
Temp
°C
Dew
Point
°C
Rel
Hum
%
Delta-T
°C
Wind Press
QNH
hPa
Press
MSL
hPa
Rain since
9am
mm
Dir  Spd
km/h
Gust
km/h
Spd
kts
Gust
kts
14/11:30pm - - - - - ENE 11 13 6 7 - - -
14/11:00pm - - - - - ENE 9 11 5 6 - - -
14/10:30pm - - - - - NE 11 13 6 7 - - -
14/10:00pm - - - - - NE 11 13 6 7 - - -
14/09:30pm - - - - - NNE 13 17 7 9 - - -
14/09:00pm - - - - - NNE 17 20 9 11 - - -
14/08:30pm - - - - - NNE 19 20 10 11 - - -
14/08:00pm - - - - - NE 17 20 9 11 - - -
14/07:30pm - - - - - NE 15 19 8 10 - - -
14/07:00pm - - - - - NE 19 22 10 12 - - -
14/06:30pm - - - - - NE 20 26 11 14 - - -
14/06:00pm - - - - - NE 24 28 13 15 - - -
14/05:30pm - - - - - NNE 28 32 15 17 - - -
14/05:00pm - - - - - NE 26 30 14 16 - - -
14/04:30pm - - - - - NE 26 30 14 16 - - -
14/04:00pm - - - - - NE 28 32 15 17 - - -
14/03:30pm - - - - - NE 28 32 15 17 - - -
14/03:00pm - - - - - NE 28 33 15 18 - - -
14/02:30pm - - - - - NE 28 32 15 17 - - -
14/02:00pm - - - - - NE 26 30 14 16 - - -
14/01:30pm - - - - - NE 22 24 12 13 - - -
14/01:00pm - - - - - NE 17 20 9 11 - - -
14/12:30pm - - - - - NNE 13 15 7 8 - - -
14/12:00pm - - - - - NE 7 9 4 5 - - -
14/11:30am - - - - - NE 6 9 3 5 - - -
14/11:00am - - - - - S 4 6 2 3 - - -
14/10:30am - - - - - S 6 9 3 5 - - -
14/10:00am - - - - - S 7 9 4 5 - - -
14/09:30am - - - - - SE 6 7 3 4 - - -
14/09:00am - - - - - ESE 9 11 5 6 - - -
14/08:30am - - - - - ESE 11 15 6 8 - - -
14/08:00am - - - - - E 11 15 6 8 - - -
14/07:30am - - - - - E 13 17 7 9 - - -
14/07:00am - - - - - E 19 20 10 11 - - -
14/06:30am - - - - - E 22 26 12 14 - - -
14/06:00am - - - - - E 22 26 12 14 - - -
14/05:30am - - - - - E 20 24 11 13 - - -
14/05:00am - - - - - ESE 22 26 12 14 - - -
14/04:30am - - - - - E 20 24 11 13 - - -
14/04:00am - - - - - ESE 20 24 11 13 - - -
14/03:30am - - - - - ESE 20 26 11 14 - - -
14/03:00am - - - - - E 19 22 10 12 - - -
14/02:30am - - - - - E 15 19 8 10 - - -
14/02:00am - - - - - E 15 19 8 10 - - -
14/01:30am - - - - - E 17 22 9 12 - - -
14/01:00am - - - - - ESE 20 26 11 14 - - -
14/12:30am - - - - - ESE 20 26 11 14 - - -
14/12:00am - - - - - ESE 20 26 11 14 - - -
 
Date/Time
EST
Temp
°C
App
Temp
°C
Dew
Point
°C
Rel
Hum
%
Delta-T
°C
Wind Press
QNH
hPa
Press
MSL
hPa
Rain since
9am
mm
Dir  Spd
km/h
Gust
km/h
Spd
kts
Gust
kts
13/11:30pm - - - - - ESE 19 22 10 12 - - -
13/11:00pm - - - - - ESE 20 24 11 13 - - -
13/10:30pm - - - - - ESE 22 24 12 13 - - -
13/10:00pm - - - - - ESE 24 30 13 16 - - -
13/09:30pm - - - - - ESE 24 30 13 16 - - -
13/09:00pm - - - - - ESE 24 32 13 17 - - -
13/08:30pm - - - - - ESE 26 30 14 16 - - -
13/08:00pm - - - - - ESE 24 28 13 15 - - -
13/07:30pm - - - - - ESE 28 33 15 18 - - -
13/07:00pm - - - - - ESE 30 39 16 21 - - -
13/06:30pm - - - - - ESE 30 35 16 19 - - -
13/06:00pm - - - - - ESE 28 35 15 19 - - -
13/05:30pm - - - - - ESE 30 37 16 20 - - -
13/05:00pm - - - - - ESE 33 43 18 23 - - -
13/04:30pm - - - - - ESE 35 43 19 23 - - -
13/04:00pm - - - - - ESE 35 44 19 24 - - -
13/03:30pm - - - - - ESE 35 41 19 22 - - -
13/03:00pm - - - - - ESE 35 41 19 22 - - -
13/02:30pm - - - - - ESE 32 39 17 21 - - -
13/02:00pm - - - - - ESE 19 26 10 14 - - -
13/01:30pm - - - - - E 9 11 5 6 - - -
13/01:00pm - - - - - E 17 26 9 14 - - -
13/12:30pm - - - - - NNE 24 28 13 15 - - -
13/12:00pm - - - - - NNE 20 26 11 14 - - -
13/11:30am - - - - - NNE 20 24 11 13 - - -
13/11:00am - - - - - NNE 17 22 9 12 - - -
13/10:30am - - - - - NNE 20 26 11 14 - - -
13/10:00am - - - - - NNE 20 28 11 15 - - -
13/09:30am - - - - - N 20 24 11 13 - - -
13/09:00am - - - - - N 19 24 10 13 - - -
13/08:30am - - - - - N 24 28 13 15 - - -
13/08:00am - - - - - N 24 28 13 15 - - -
13/07:30am - - - - - NNW 22 26 12 14 - - -
13/07:00am - - - - - NNW 24 28 13 15 - - -
13/06:30am - - - - - NNW 26 30 14 16 - - -
13/06:00am - - - - - NNW 26 32 14 17 - - -
13/05:30am - - - - - NNW 30 35 16 19 - - -
13/05:00am - - - - - NNW 32 39 17 21 - - -
13/04:30am - - - - - NNW 32 39 17 21 - - -
13/04:00am - - - - - N 37 46 20 25 - - -
13/03:30am - - - - - N 37 44 20 24 - - -
13/03:00am - - - - - NNW 37 44 20 24 - - -
13/02:30am - - - - - NNW 35 43 19 23 - - -
13/02:00am - - - - - NNW 39 48 21 26 - - -
13/01:30am - - - - - NNW 41 52 22 28 - - -
13/01:00am - - - - - NNW 41 50 22 27 - - -
13/12:30am - - - - - NNW 43 50 23 27 - - -
13/12:00am - - - - - NNW 37 48 20 26 - - -
 
Date/Time
EST
Temp
°C
App
Temp
°C
Dew
Point
°C
Rel
Hum
%
Delta-T
°C
Wind Press
QNH
hPa
Press
MSL
hPa
Rain since
9am
mm
Dir  Spd
km/h
Gust
km/h
Spd
kts
Gust
kts
12/11:30pm - - - - - NNW 41 48 22 26 - - -
12/11:00pm - - - - - NNW 44 52 24 28 - - -
12/10:30pm - - - - - NNW 44 54 24 29 - - -
12/10:00pm - - - - - NNW 50 61 27 33 - - -
12/09:30pm - - - - - N 50 61 27 33 - - -
12/09:00pm - - - - - N 50 61 27 33 - - -
12/08:30pm - - - - - N 48 59 26 32 - - -
12/08:00pm - - - - - N 48 57 26 31 - - -
12/07:30pm - - - - - N 46 57 25 31 - - -
12/07:00pm - - - - - N 50 61 27 33 - - -
12/06:30pm - - - - - N 50 57 27 31 - - -
12/06:00pm - - - - - N 52 61 28 33 - - -
12/05:30pm - - - - - N 50 61 27 33 - - -
12/05:00pm - - - - - N 50 59 27 32 - - -
12/04:30pm - - - - - N 48 61 26 33 - - -
12/04:00pm - - - - - N 46 56 25 30 - - -
12/03:30pm - - - - - N 44 56 24 30 - - -
12/03:00pm - - - - - N 43 54 23 29 - - -
12/02:30pm - - - - - N 44 56 24 30 - - -
12/02:00pm - - - - - N 43 50 23 27 - - -
12/01:30pm - - - - - N 41 48 22 26 - - -
12/01:00pm - - - - - N 41 50 22 27 - - -
12/12:30pm - - - - - N 39 48 21 26 - - -
12/12:00pm - - - - - N 39 46 21 25 - - -
12/11:30am - - - - - N 37 44 20 24 - - -
12/11:00am - - - - - N 33 39 18 21 - - -

Latest Capital City Observations: Canberra | Sydney | Melbourne | Brisbane | Adelaide | Perth | Hobart | Darwin

Other formats

Comma delimited format used in spreadsheet applications
http://www.bom.gov.au/fwo/IDQ60901/IDQ60901.94581.axf

JavaScript Object Notation format (JSON) in row-major order
http://www.bom.gov.au/fwo/IDQ60901/IDQ60901.94581.json

Data quality

Most of these data are generated automatically and are frequently updated. Quality checks on data are not normally performed. It is possible for incorrect values to appear. Refer to information at About Latest Weather Observations and please check the disclaimer before using these data.